• Join FlightAware (Why Join?)
  • Login
  • US Flag 
03:21PM EST


 

Airport Tracker/Info


-or-


 

Live Flight TrackerFlight Track Log ✈ DCM1015 ✈ 15-Jul-2014 ✈ KPIE - KSJC

Flight Track Log - Related Links

Times and Time Zones

All times are in EDT time to prevent confusion due to time zone crossing. See the DCM1015 flight status page for this flight to view local times or setup timezone preferences in your user account.

Time Position Orientation Groundspeed Altitude Reporting Facility
EDT Latitude Longitude Course Direction KTS MPH feet Rate Location/Type
01:39PM 27.9333 -82.7000 270° West 132 152 500  Level Tampa TRACON
01:39PM 27.9333 -82.7167 312° West 161 185 1,600 1,440 Climbing Tampa TRACON
01:40PM 27.9333 -82.7833 270° West 216 249 3,100 2,160 Climbing Tampa TRACON
01:43PM 27.8444 -82.9336 236° Southwest 266 306 8,700 2,400 Climbing Miami Center
01:44PM 27.7997 -83.0069 235° Southwest 279 321 11,100 2,040 Climbing Miami Center
01:45PM 27.7508 -83.0861 235° Southwest 303 349 12,900 1,800 Climbing Miami Center
01:46PM 27.7006 -83.1683 235° Southwest 315 362 14,900 1,860 Climbing Miami Center
01:47PM 27.6967 -83.2683 268° West 330 380 16,800 1,740 Climbing Miami Center
01:48PM 27.7092 -83.3711 278° West 329 379 18,500 1,560 Climbing Miami Center
01:49PM 27.7192 -83.4781 276° West 339 390 20,100 1,680 Climbing Miami Center
01:50PM 27.7328 -83.6075 277° West 344 396 22,000 1,500 Climbing Miami Center
01:51PM 27.7431 -83.7167 276° West 346 398 23,200 1,260 Climbing Miami Center
01:52PM 27.7547 -83.8297 277° West 360 414 24,600 1,200 Climbing Miami Center
01:53PM 27.7650 -83.9444 276° West 366 421 25,800 1,140 Climbing Miami Center
01:54PM 27.7758 -84.0617 276° West 371 427 27,000 1,020 Climbing Miami Center
01:55PM 27.7886 -84.1822 277° West 383 441 27,900 840 Climbing Miami Center
01:56PM 27.7989 -84.3042 275° West 388 447 28,800 960 Climbing Miami Center
01:57PM 27.8033 -84.4539 272° West 398 458 29,900 960 Climbing Miami Center
01:58PM 27.8031 -84.5808 270° West 402 463 30,900 720 Climbing Miami Center
01:59PM 27.8033 -84.7078 270° West 403 464 31,500 660 Climbing Miami Center
02:00PM 27.8022 -84.8400 269° West 420 483 32,300 900 Climbing Miami Center
02:01PM 27.8014 -84.9692 270° West 417 480 33,400 840 Climbing Miami Center
02:02PM 27.7997 -85.1106 269° West 415 478 34,100 720 Climbing Miami Center
02:04PM 27.8428 -85.3636 281° West 411 473 35,800 720 Climbing Miami Center
02:05PM 27.8889 -85.4783 294° West 406 467 36,400 720 Climbing Miami Center
02:06PM 27.9131 -85.5372 295° West 404 465 36,900 780 Climbing Houston Center
02:06PM 27.9439 -85.6081 296° West 398 458 37,300 420 Climbing Jacksonville Center
02:07PM 27.9936 -85.7222 296° West 398 458 37,600 540 Climbing Jacksonville Center
02:08PM 28.0475 -85.8367 298° West 406 467 38,400 600 Climbing Jacksonville Center
02:09PM 28.0928 -85.9461 295° West 406 467 38,800 420 Climbing Jacksonville Center
02:10PM 28.1275 -86.0694 288° West 406 467 39,300 480 Climbing Jacksonville Center
02:11PM 28.1619 -86.1908 288° West 406 467 39,800 300 Climbing Jacksonville Center
02:12PM 28.1986 -86.3050 290° West 406 467 39,900  Climbing Jacksonville Center
02:13PM 28.2347 -86.4308 288° West 411 473 39,900  Level Jacksonville Center
02:14PM 28.2692 -86.5475 289° West 411 473 40,000  Climbing Jacksonville Center
02:15PM 28.3050 -86.6761 288° West 416 479 39,900 -60 Descending Jacksonville Center
02:16PM 28.3469 -86.8050 290° West 423 487 39,900  Level Jacksonville Center
02:17PM 28.3828 -86.9339 288° West 431 496 39,900  Level Jacksonville Center
02:18PM 28.4164 -87.0581 287° West 430 495 39,900  Level Jacksonville Center
02:19PM 28.4475 -87.1547 290° West 425 489 39,900  Level Houston Center
02:20PM 28.4914 -87.3083 288° West 425 489 39,900  Level Houston Center
02:21PM 28.5278 -87.4358 288° West 425 489 40,000  Climbing Houston Center
02:22PM 28.5639 -87.5631 288° West 424 488 39,900 -60 Descending Houston Center
02:23PM 28.6011 -87.6917 288° West 425 489 39,900  Level Houston Center
02:24PM 28.6197 -87.8242 279° West 425 489 40,000  Climbing Houston Center
02:26PM 28.6356 -87.9581 278° West 425 489 39,900 -60 Descending Houston Center
02:27PM 28.6511 -88.0992 277° West 427 491 39,900  Level Houston Center
02:28PM 28.6706 -88.2600 278° West 427 491 40,000  Climbing Houston Center
02:29PM 28.6864 -88.3931 278° West 427 491 39,900 -60 Descending Houston Center
02:30PM 28.7022 -88.5267 278° West 427 491 39,900  Level Houston Center
02:31PM 28.7192 -88.6614 278° West 428 493 40,000  Climbing Houston Center
02:32PM 28.7361 -88.7961 278° West 428 493 39,900  Descending Houston Center
02:33PM 28.7547 -88.9300 279° West 428 493 40,000  Climbing Houston Center
02:34PM 28.7758 -89.0900 279° West 427 491 39,900 -60 Descending Houston Center
02:35PM 28.7944 -89.2233 279° West 427 491 39,900  Level Houston Center
02:36PM 28.8117 -89.3581 278° West 428 493 40,000  Climbing Houston Center
02:37PM 28.8303 -89.4917 279° West 427 491 40,000  Level Houston Center
02:38PM 28.8492 -89.6278 279° West 430 495 40,000 -60 Level Houston Center
02:39PM 28.8836 -89.7569 287° West 428 493 39,900  Descending Houston Center
02:40PM 28.9450 -89.9064 295° West 429 494 40,000  Climbing Houston Center
02:41PM 28.9978 -90.0297 296° West 429 494 40,000  Level Houston Center
02:42PM 29.0500 -90.1525 296° West 430 495 40,000  Level Houston Center
02:43PM 29.1033 -90.2767 296° West 430 495 40,000 -60 Level Houston Center
02:44PM 29.1553 -90.4003 296° West 430 495 39,900  Descending Houston Center
02:45PM 29.2178 -90.5492 296° West 431 496 40,000  Climbing Houston Center
02:46PM 29.2703 -90.6742 296° West 433 498 39,900 -60 Descending Houston Center
02:47PM 29.3067 -90.8047 288° West 430 495 39,900  Level Houston Center
02:48PM 29.3364 -90.9369 284° West 428 493 40,000  Climbing Houston Center
02:49PM 29.3656 -91.0681 284° West 428 493 40,000 -60 Level Houston Center
02:50PM 29.3961 -91.1967 285° West 422 486 39,900  Descending Houston Center
02:51PM 29.4308 -91.3522 284° West 421 484 40,000  Climbing Houston Center
02:52PM 29.4592 -91.4833 284° West 422 486 39,900 -60 Descending Houston Center
02:54PM 29.4903 -91.6122 286° West 422 486 39,900  Level Houston Center
02:55PM 29.5208 -91.7475 285° West 419 482 39,900  Level Houston Center
02:56PM 29.5497 -91.8769 284° West 420 483 40,000  Climbing Houston Center
02:57PM 29.5811 -92.0061 286° West 420 483 40,000  Level Houston Center
02:58PM 29.6097 -92.1358 284° West 421 484 40,000 -60 Level Houston Center
02:59PM 29.6744 -92.2789 298° West 421 484 39,900  Descending Houston Center
03:00PM 29.7433 -92.3867 306° West 420 483 40,000  Climbing Houston Center
03:01PM 29.8169 -92.4919 309° West 422 486 40,000  Level Houston Center
03:02PM 29.8675 -92.6161 295° West 426 490 40,000 -60 Level Houston Center
03:03PM 29.9175 -92.7386 295° West 427 491 39,900  Descending Houston Center
03:04PM 29.9694 -92.8636 296° West 431 496 40,000  Climbing Houston Center
03:05PM 30.0300 -93.0125 295° West 429 494 40,000 -60 Level Houston Center
03:06PM 30.0806 -93.1361 295° West 427 491 39,900  Descending Houston Center
03:07PM 30.1311 -93.2617 295° West 430 495 40,000  Climbing Houston Center
03:08PM 30.1819 -93.3878 295° West 430 495 40,000  Level Houston Center
03:09PM 30.2333 -93.5164 295° West 431 496 40,000 -60 Level Houston Center
03:10PM 30.2872 -93.6481 295° West 437 503 39,900 -60 Descending Houston Center
03:11PM 30.3400 -93.7753 296° West 437 503 39,900  Level Houston Center
03:12PM 30.3911 -93.9008 295° West 434 499 39,900  Level Houston Center
03:13PM 30.4519 -94.0517 295° West 434 499 40,000  Climbing Houston Center
03:14PM 30.5022 -94.1778 295° West 433 498 40,000 -60 Level Houston Center
03:15PM 30.5517 -94.3056 294° West 433 498 39,900  Descending Houston Center
03:16PM 30.6025 -94.4314 295° West 432 497 40,000  Climbing Houston Center
03:17PM 30.6558 -94.5708 294° West 432 497 40,000  Level Houston Center
03:18PM 30.7064 -94.7006 294° West 434 499 40,000 -60 Level Houston Center
03:19PM 30.7575 -94.8303 295° West 436 502 39,900 -60 Descending Houston Center
03:20PM 30.8072 -94.9597 294° West 436 502 39,900  Level Houston Center
03:21PM 30.8569 -95.0892 294° West 436 502 40,000  Climbing Houston Center
03:23PM 30.9169 -95.2450 294° West 436 502 39,900  Descending Houston Center
03:24PM 30.9675 -95.3744 295° West 437 503 40,000  Climbing Houston Center
03:25PM 31.0164 -95.5033 294° West 435 501 40,000 -60 Level Houston Center
03:26PM 31.0661 -95.6333 294° West 435 501 39,900  Descending Houston Center
03:27PM 31.1144 -95.7622 294° West 435 501 40,000  Climbing Houston Center
03:28PM 31.1639 -95.8911 294° West 435 501 39,900 -60 Descending Houston Center
03:29PM 31.2192 -96.0158 297° West 435 501 39,900  Level Houston Center
03:30PM 31.2947 -96.1450 304° West 434 499 40,000  Climbing Houston Center
03:31PM 31.3606 -96.2608 304° West 433 498 40,000  Level Houston Center
03:32PM 31.4250 -96.3764 303° West 430 495 40,000  Level Fort Worth Center
03:33PM 31.4886 -96.4925 303° West 427 491 40,000  Level Fort Worth Center
03:34PM 31.5394 -96.6167 296° West 425 489 40,000  Level Fort Worth Center
03:35PM 31.5836 -96.7425 292° West 423 487 40,000  Level Fort Worth Center
03:36PM 31.6367 -96.8933 292° West 421 484 40,000  Level Fort Worth Center
03:37PM 31.6819 -97.0186 293° West 421 484 40,000  Level Fort Worth Center
03:38PM 31.7261 -97.1442 292° West 420 483 40,000  Level Fort Worth Center
03:39PM 31.7700 -97.2686 293° West 414 476 40,000  Level Fort Worth Center
03:40PM 31.8139 -97.3936 292° West 418 481 40,000  Level Fort Worth Center
03:41PM 31.8664 -97.5447 292° West 418 481 40,000  Level Fort Worth Center
03:42PM 31.9100 -97.6711 292° West 417 480 40,000  Level Fort Worth Center
03:43PM 31.9542 -97.7953 293° West 416 479 40,000 -60 Level Fort Worth Center
03:44PM 32.0028 -97.9417 291° West 417 480 39,900 -60 Descending Fort Worth Center
03:45PM 32.0475 -98.0656 293° West 415 478 39,900  Level Fort Worth Center
03:46PM 32.0906 -98.1947 292° West 416 479 39,900  Level Fort Worth Center
03:47PM 32.1336 -98.3217 292° West 417 480 40,000  Climbing Fort Worth Center
03:48PM 32.1781 -98.4517 292° West 417 480 40,000  Level Fort Worth Center
03:49PM 32.2217 -98.5786 292° West 417 480 40,000 -60 Level Fort Worth Center
03:50PM 32.2714 -98.7258 292° West 417 480 39,900  Descending Fort Worth Center
03:51PM 32.3142 -98.8567 291° West 417 480 40,000  Climbing Fort Worth Center
03:52PM 32.3572 -98.9828 292° West 416 479 40,000  Level Fort Worth Center
03:53PM 32.4011 -99.1106 292° West 417 480 40,000  Level Fort Worth Center
03:55PM 32.4431 -99.2364 292° West 415 478 40,000  Level Fort Worth Center
03:56PM 32.4850 -99.3633 291° West 415 478 40,000  Level Fort Worth Center
03:57PM 32.5247 -99.4894 291° West 409 471 40,000  Level Fort Worth Center
03:58PM 32.5747 -99.6431 291° West 412 474 40,000 -60 Level Fort Worth Center
03:59PM 32.6183 -99.7753 291° West 413 475 39,900 -60 Descending Fort Worth Center
04:00PM 32.6619 -99.9039 292° West 415 478 39,900  Level Fort Worth Center
04:02PM 32.7475 -100.1711 291° West 428 493 40,000  Climbing Fort Worth Center
04:03PM 32.7892 -100.2989 291° West 416 479 40,000  Level Fort Worth Center
04:04PM 32.8300 -100.4261 291° West 414 476 40,000  Level Fort Worth Center
04:05PM 32.8708 -100.5536 291° West 414 476 40,000  Level Fort Worth Center
04:06PM 32.9114 -100.6836 290° West 415 478 40,000  Level Fort Worth Center
04:07PM 32.9608 -100.8378 291° West 416 479 40,000  Level Fort Worth Center
04:08PM 32.9986 -100.9678 289° West 416 479 40,000  Level Fort Worth Center
04:09PM 33.0394 -101.0967 291° West 416 479 40,000  Level Fort Worth Center
04:10PM 33.0819 -101.2258 291° West 416 479 40,000  Level Fort Worth Center
04:11PM 33.1269 -101.3717 290° West 418 481 40,000  Level Fort Worth Center
04:12PM 33.1675 -101.5028 290° West 420 483 40,000  Level Fort Worth Center
04:13PM 33.2069 -101.6333 290° West 420 483 40,000  Level Fort Worth Center
04:14PM 33.2511 -101.7781 290° West 422 486 40,000  Level Fort Worth Center
04:15PM 33.2914 -101.9094 290° West 423 487 40,000  Level Fort Worth Center
04:16PM 33.3361 -102.0600 290° West 423 487 40,000  Level Fort Worth Center
04:17PM 33.3772 -102.1925 290° West 424 488 40,000  Level Fort Worth Center
04:18PM 33.4169 -102.3264 290° West 425 489 40,000  Level Fort Worth Center
04:19PM 33.4569 -102.4578 290° West 422 486 40,000  Level Fort Worth Center
04:20PM 33.4961 -102.5925 289° West 423 487 40,000  Level Fort Worth Center
04:21PM 33.5444 -102.7522 290° West 424 488 40,000  Level Fort Worth Center
04:22PM 33.5828 -102.8853 289° West 424 488 40,000  Level Fort Worth Center
04:24PM 33.6225 -103.0181 290° West 423 487 40,000  Level Fort Worth Center
04:25PM 33.6614 -103.1508 289° West 423 487 40,000  Level Fort Worth Center
04:26PM 33.7008 -103.2833 290° West 423 487 40,000  Level Fort Worth Center
04:27PM 33.7358 -103.4103 288° West 423 487 40,000  Level Albuquerque Center
04:28PM 33.7750 -103.5458 289° West 423 487 40,000  Level Albuquerque Center
04:29PM 33.8194 -103.6997 289° West 423 487 40,000  Level Albuquerque Center
04:30PM 33.8611 -103.8358 290° West 429 494 40,000  Level Albuquerque Center
04:31PM 33.9000 -103.9786 288° West 426 490 40,000  Level Albuquerque Center
04:32PM 33.9381 -104.1122 289° West 425 489 40,000  Level Albuquerque Center
04:33PM 33.9753 -104.2467 288° West 425 489 40,000  Level Albuquerque Center
04:34PM 34.0125 -104.3842 288° West 425 489 40,000  Level Albuquerque Center
04:35PM 34.0508 -104.5197 289° West 425 489 40,000  Level Albuquerque Center
04:36PM 34.0886 -104.6542 289° West 423 487 40,000  Level Albuquerque Center
04:37PM 34.1261 -104.7903 288° West 423 487 40,000  Level Albuquerque Center
04:38PM 34.1633 -104.9256 288° West 422 486 40,000  Level Albuquerque Center
04:39PM 34.1992 -105.0589 288° West 419 482 40,000  Level Albuquerque Center
04:40PM 34.2361 -105.1944 288° West 419 482 40,000  Level Albuquerque Center
04:41PM 34.2786 -105.3511 288° West 418 481 40,000  Level Albuquerque Center
04:42PM 34.3147 -105.4833 288° West 416 479 40,000  Level Albuquerque Center
04:43PM 34.3497 -105.6172 288° West 416 479 40,000  Level Albuquerque Center
04:44PM 34.3836 -105.7514 287° West 415 478 40,000  Level Albuquerque Center
04:45PM 34.4117 -105.8872 284° West 415 478 40,000  Level Albuquerque Center
04:46PM 34.4417 -106.0239 285° West 414 476 40,000  Level Albuquerque Center
04:47PM 34.4711 -106.1592 285° West 414 476 40,000  Level Albuquerque Center
04:48PM 34.5014 -106.3017 284° West 414 476 40,000  Level Albuquerque Center
04:49PM 34.5303 -106.4369 285° West 415 478 40,000  Level Albuquerque Center
04:50PM 34.5614 -106.5853 284° West 415 478 40,000  Level Albuquerque Center
04:51PM 34.5906 -106.7250 284° West 416 479 40,000  Level Albuquerque Center
04:52PM 34.6208 -106.8694 284° West 416 479 40,000  Level Albuquerque Center
04:53PM 34.6508 -107.0094 285° West 423 487 40,000  Level Albuquerque Center
04:54PM 34.6814 -107.1578 284° West 423 487 40,000  Level Albuquerque Center
04:55PM 34.7069 -107.2969 283° West 423 487 40,000  Level Albuquerque Center
04:56PM 34.7131 -107.4419 273° West 428 493 40,000  Level Albuquerque Center
04:57PM 34.7164 -107.5878 272° West 431 496 40,000  Level Albuquerque Center
04:58PM 34.7244 -107.7347 274° West 432 497 40,000  Level Albuquerque Center
04:59PM 34.7322 -107.8792 274° West 432 497 40,000  Level Albuquerque Center
05:01PM 34.7389 -108.0253 273° West 431 496 40,000  Level Albuquerque Center
05:02PM 34.7483 -108.1792 274° West 431 496 40,000  Level Albuquerque Center
05:03PM 34.7744 -108.3369 281° West 430 495 40,000  Level Albuquerque Center
05:04PM 34.8047 -108.4683 286° West 424 488 40,000  Level Albuquerque Center
05:05PM 34.8389 -108.6239 285° West 425 489 40,000  Level Albuquerque Center
05:06PM 34.8678 -108.7608 284° West 426 490 40,000  Level Albuquerque Center
05:07PM 34.9003 -108.9172 284° West 426 490 40,000  Level Albuquerque Center
05:08PM 34.9300 -109.0517 285° West 426 490 40,000  Level Albuquerque Center
05:09PM 34.9578 -109.1881 284° West 427 491 40,000  Level Albuquerque Center
05:10PM 34.9903 -109.3453 284° West 427 491 40,000  Level Albuquerque Center
05:11PM 35.0192 -109.4808 285° West 427 491 40,000  Level Albuquerque Center
05:12PM 35.0517 -109.6389 284° West 427 491 40,000  Level Albuquerque Center
05:13PM 35.0797 -109.7733 284° West 427 491 40,000  Level Albuquerque Center
05:14PM 35.1075 -109.9094 284° West 428 493 40,000  Level Albuquerque Center
05:15PM 35.1431 -110.0656 286° West 427 491 40,000  Level Albuquerque Center
05:16PM 35.1883 -110.1886 294° West 416 479 40,000  Level Albuquerque Center
05:17PM 35.2419 -110.3333 294° West 416 479 40,000  Level Albuquerque Center
05:18PM 35.2883 -110.4564 295° West 416 479 40,000  Level Albuquerque Center
05:19PM 35.3450 -110.6014 296° West 416 479 40,000  Level Albuquerque Center
05:20PM 35.3931 -110.7261 295° West 420 483 40,000  Level Albuquerque Center
05:21PM 35.4397 -110.8497 295° West 420 483 40,000  Level Albuquerque Center
05:22PM 35.4953 -110.9942 295° West 420 483 40,000  Level Albuquerque Center
05:23PM 35.5436 -111.1178 296° West 420 483 40,000  Level Albuquerque Center
05:24PM 35.5975 -111.2625 295° West 419 482 40,000  Level Albuquerque Center
05:25PM 35.6450 -111.3872 295° West 419 482 40,000  Level Albuquerque Center
05:26PM 35.6947 -111.5186 295° West 419 482 40,000  Level Albuquerque Center
05:27PM 35.7408 -111.6494 294° West 419 482 40,000  Level Albuquerque Center
05:28PM 35.7594 -111.8189 278° West 424 488 40,000  Level Los Angeles Center
05:29PM 35.7703 -111.9661 275° West 424 488 40,000  Level Los Angeles Center
05:30PM 35.7844 -112.1122 277° West 426 490 40,000  Level Los Angeles Center
05:31PM 35.7972 -112.2581 276° West 426 490 40,000  Level Los Angeles Center
05:33PM 35.8097 -112.4061 276° West 429 494 40,000  Level Los Angeles Center
05:34PM 35.8253 -112.5831 276° West 430 495 40,000  Level Los Angeles Center
05:35PM 35.8367 -112.7200 276° West 430 495 40,000  Level Los Angeles Center
05:36PM 35.8483 -112.8681 276° West 430 495 40,000  Level Los Angeles Center
05:37PM 35.8603 -113.0156 276° West 431 496 40,000  Level Los Angeles Center
05:38PM 35.8742 -113.1933 276° West 431 496 40,000  Level Los Angeles Center
05:39PM 35.8856 -113.3419 275° West 432 497 40,000  Level Los Angeles Center
05:40PM 35.8969 -113.4903 275° West 433 498 40,000  Level Los Angeles Center
05:41PM 35.9089 -113.6392 276° West 433 498 40,000  Level Los Angeles Center
05:42PM 35.9203 -113.7883 275° West 434 499 40,000  Level Los Angeles Center
05:43PM 35.9328 -113.9683 275° West 436 502 40,000  Level Los Angeles Center
05:44PM 35.9433 -114.1175 275° West 436 502 40,000  Level Los Angeles Center
05:45PM 35.9547 -114.2672 275° West 437 503 40,000  Level Los Angeles Center
05:46PM 35.9642 -114.4169 275° West 437 503 40,000  Level Los Angeles Center
05:47PM 35.9750 -114.5667 275° West 437 503 40,000  Level Los Angeles Center
05:48PM 35.9839 -114.7169 274° West 437 503 40,000  Level Los Angeles Center
05:49PM 35.9981 -114.8667 277° West 438 504 40,000  Level Los Angeles Center
05:50PM 36.0647 -115.0269 297° West 438 504 40,000  Level Los Angeles Center
05:51PM 36.1244 -115.1575 300° West 437 503 40,000  Level Los Angeles Center
05:52PM 36.1825 -115.2903 298° West 438 504 40,000  Level Los Angeles Center
05:53PM 36.2397 -115.4225 298° West 436 502 40,000  Level Los Angeles Center
05:54PM 36.3014 -115.5694 298° West 446 513 40,000  Level Los Angeles Center
05:55PM 36.3611 -115.7083 298° West 446 513 40,000  Level Los Angeles Center
05:56PM 36.4192 -115.8428 298° West 444 511 40,000  Level Los Angeles Center
05:57PM 36.4847 -115.9992 298° West 443 510 40,000  Level Los Angeles Center
05:58PM 36.5422 -116.1342 298° West 443 510 40,000  Level Los Angeles Center
05:59PM 36.5989 -116.2692 298° West 442 509 40,000  Level Los Angeles Center
06:00PM 36.6564 -116.4053 298° West 442 509 40,000  Level Los Angeles Center
06:02PM 36.7142 -116.5406 298° West 442 509 40,000  Level Los Angeles Center
06:03PM 36.7703 -116.6775 297° West 442 509 40,000  Level Los Angeles Center
06:04PM 36.8503 -116.7964 310° West 461 531 40,000  Level Los Angeles Center
06:05PM 36.9756 -116.8956 328° Northwest 450 518 40,000  Level Los Angeles Center
06:06PM 37.0797 -116.9811 327° Northwest 449 517 40,000  Level Los Angeles Center
06:07PM 37.1825 -117.0706 325° Northwest 449 517 40,000  Level Los Angeles Center
06:08PM 37.2850 -117.1583 326° Northwest 448 516 40,000  Level Los Angeles Center
06:09PM 37.3883 -117.2442 327° Northwest 448 516 40,000  Level Los Angeles Center
06:10PM 37.4786 -117.3861 309° West 444 511 40,000  Level Los Angeles Center
06:11PM 37.4817 -117.5342 272° West 432 497 40,000  Level Oakland Center
06:12PM 37.4683 -117.6836 264° West 431 496 40,000  Level Oakland Center
06:13PM 37.4561 -117.8347 264° West 432 497 40,000 -60 Level Oakland Center
06:14PM 37.4433 -117.9847 264° West 431 496 39,900 -960 Descending Oakland Center
06:15PM 37.4311 -118.1369 264° West 432 497 38,100 -1,920 Descending Oakland Center
06:16PM 37.4186 -118.2933 264° West 445 512 36,000 -2,220 Descending Oakland Center
06:17PM 37.4189 -118.4500 270° West 447 514 33,600 -2,460 Descending Oakland Center
06:18PM 37.4289 -118.6111 275° West 459 528 31,000 -1,800 Descending Oakland Center
06:19PM 37.4447 -118.8058 276° West 461 531 30,000 -540 Descending Oakland Center
06:20PM 37.4564 -118.9589 276° West 463 533 30,000  Level Oakland Center
06:21PM 37.4478 -119.1203 266° West 465 535 30,000 -660 Level Oakland Center
06:22PM 37.4167 -119.2786 256° West 468 539 28,700 -1,560 Descending Oakland Center
06:23PM 37.3886 -119.4347 257° West 464 534 26,900 -1,740 Descending Oakland Center
06:24PM 37.3628 -119.5925 258° West 463 533 25,200 -1,740 Descending Oakland Center
06:25PM 37.3339 -119.7514 257° West 465 535 23,400 -1,920 Descending Oakland Center
06:26PM 37.3006 -119.9422 258° West 466 536 21,300 -1,920 Descending Oakland Center
06:27PM 37.2719 -120.1000 257° West 465 535 19,500 -1,800 Descending Oakland Center
06:28PM 37.2439 -120.2578 257° West 461 531 17,700 -1,740 Descending Oakland Center
06:29PM 37.2156 -120.4122 257° West 457 526 16,000 -1,680 Descending Oakland Center
06:30PM 37.1850 -120.5594 255° West 440 506 14,300 -1,680 Descending Oakland Center
06:31PM 37.1558 -120.7047 256° West 432 497 12,600 -1,680 Descending Oakland Center
06:32PM 37.1392 -120.8483 262° West 419 482 10,900 -1,200 Descending Oakland Center
06:34PM 37.1167 -121.0333 261° West 415 478 10,000 -480 Descending Northern Cal TRACON
06:34PM 37.1036 -121.1303 260° West 412 474 10,000  Level Oakland Center
06:35PM 37.0844 -121.2678 260° West 400 460 10,100  Climbing Oakland Center
06:36PM 37.0692 -121.3892 261° West 369 425 10,000 -540 Descending Oakland Center
06:37PM 37.0739 -121.4922 273° West 313 360 9,100 -1,320 Descending Oakland Center
06:39PM 37.1169 -121.5964 297° West 290 334 7,300 -1,680 Descending Oakland Center
06:40PM 37.1497 -121.6786 297° West 273 314 5,700 -1,380 Descending Oakland Center
06:41PM 37.1825 -121.7453 302° West 242 278 4,500 -1,200 Descending Oakland Center
06:42PM 37.2281 -121.7842 326° Northwest 213 245 3,300 -1,080 Descending Oakland Center
06:43PM 37.2664 -121.8267 319° Northwest 197 227 2,400 -840 Descending Oakland Center
06:44PM 37.2983 -121.8628 318° Northwest 175 201 1,600 -780 Descending Oakland Center
06:45PM 37.3275 -121.8939 320° Northwest 154 177 900 -660 Descending Oakland Center
06:46PM 37.3525 -121.9203 320° Northwest 133 153 300 -600 Descending Oakland Center
06:48PM 37.3500 -121.9167 North  Level FlightAware Approximate
06:55PM 37.3627 -121.9291 North  Level Estimated